sensor_id;sensor_type;location;lat;lon;timestamp;P1;durP1;ratioP1;P2;durP2;ratioP2
5774;SDS011;2913;51.120;6.772;2022-12-10T00:01:05;54.72;;;23.10;;
5774;SDS011;2913;51.120;6.772;2022-12-10T00:03:32;67.03;;;23.30;;
5774;SDS011;2913;51.120;6.772;2022-12-10T00:06:04;51.65;;;22.30;;
5774;SDS011;2913;51.120;6.772;2022-12-10T00:08:31;64.60;;;23.15;;
5774;SDS011;2913;51.120;6.772;2022-12-10T00:10:58;54.90;;;23.23;;
5774;SDS011;2913;51.120;6.772;2022-12-10T00:13:24;59.60;;;22.98;;
5774;SDS011;2913;51.120;6.772;2022-12-10T00:15:50;53.20;;;21.50;;
5774;SDS011;2913;51.120;6.772;2022-12-10T00:18:16;60.85;;;22.90;;
5774;SDS011;2913;51.120;6.772;2022-12-10T00:20:41;56.55;;;22.40;;
5774;SDS011;2913;51.120;6.772;2022-12-10T00:23:09;54.85;;;22.45;;
5774;SDS011;2913;51.120;6.772;2022-12-10T00:25:35;57.78;;;21.77;;
5774;SDS011;2913;51.120;6.772;2022-12-10T00:28:03;58.28;;;21.83;;
5774;SDS011;2913;51.120;6.772;2022-12-10T00:30:28;52.60;;;21.17;;
5774;SDS011;2913;51.120;6.772;2022-12-10T00:32:54;52.97;;;21.80;;
5774;SDS011;2913;51.120;6.772;2022-12-10T00:35:20;50.72;;;20.50;;
5774;SDS011;2913;51.120;6.772;2022-12-10T00:37:45;51.88;;;21.08;;
5774;SDS011;2913;51.120;6.772;2022-12-10T00:40:11;53.50;;;21.48;;
5774;SDS011;2913;51.120;6.772;2022-12-10T00:42:39;54.70;;;22.02;;
5774;SDS011;2913;51.120;6.772;2022-12-10T00:45:05;52.58;;;21.48;;
5774;SDS011;2913;51.120;6.772;2022-12-10T00:47:31;60.33;;;22.23;;
5774;SDS011;2913;51.120;6.772;2022-12-10T00:49:56;54.20;;;23.05;;
5774;SDS011;2913;51.120;6.772;2022-12-10T00:52:22;52.35;;;21.33;;
5774;SDS011;2913;51.120;6.772;2022-12-10T00:54:50;54.50;;;21.98;;
5774;SDS011;2913;51.120;6.772;2022-12-10T00:57:15;52.47;;;21.58;;
5774;SDS011;2913;51.120;6.772;2022-12-10T00:59:41;62.08;;;22.45;;
5774;SDS011;2913;51.120;6.772;2022-12-10T01:02:09;55.72;;;22.25;;
5774;SDS011;2913;51.120;6.772;2022-12-10T01:04:34;49.58;;;21.08;;
5774;SDS011;2913;51.120;6.772;2022-12-10T01:07:05;56.53;;;21.05;;
5774;SDS011;2913;51.120;6.772;2022-12-10T01:09:33;54.03;;;21.05;;
5774;SDS011;2913;51.120;6.772;2022-12-10T01:12:00;52.95;;;20.65;;
5774;SDS011;2913;51.120;6.772;2022-12-10T01:14:28;52.50;;;20.65;;
5774;SDS011;2913;51.120;6.772;2022-12-10T01:17:00;55.22;;;22.23;;
5774;SDS011;2913;51.120;6.772;2022-12-10T01:19:28;56.30;;;21.10;;
5774;SDS011;2913;51.120;6.772;2022-12-10T01:21:56;53.35;;;20.70;;
5774;SDS011;2913;51.120;6.772;2022-12-10T01:24:23;53.25;;;21.00;;
5774;SDS011;2913;51.120;6.772;2022-12-10T01:26:52;53.55;;;21.90;;
5774;SDS011;2913;51.120;6.772;2022-12-10T01:29:19;59.25;;;22.00;;
5774;SDS011;2913;51.120;6.772;2022-12-10T01:31:45;65.30;;;23.52;;
5774;SDS011;2913;51.120;6.772;2022-12-10T01:34:15;53.28;;;21.80;;
5774;SDS011;2913;51.120;6.772;2022-12-10T01:36:41;55.85;;;21.70;;
5774;SDS011;2913;51.120;6.772;2022-12-10T01:39:09;52.72;;;21.20;;
5774;SDS011;2913;51.120;6.772;2022-12-10T01:41:40;55.08;;;22.23;;
5774;SDS011;2913;51.120;6.772;2022-12-10T01:46:37;51.28;;;20.55;;
5774;SDS011;2913;51.120;6.772;2022-12-10T01:49:05;56.72;;;21.08;;
5774;SDS011;2913;51.120;6.772;2022-12-10T01:51:33;49.33;;;20.30;;
5774;SDS011;2913;51.120;6.772;2022-12-10T01:54:06;47.70;;;20.75;;
5774;SDS011;2913;51.120;6.772;2022-12-10T01:56:36;53.45;;;20.95;;
5774;SDS011;2913;51.120;6.772;2022-12-10T01:59:07;51.17;;;20.58;;
5774;SDS011;2913;51.120;6.772;2022-12-10T02:04:47;60.05;;;21.13;;
5774;SDS011;2913;51.120;6.772;2022-12-10T02:13:34;54.97;;;20.63;;
5774;SDS011;2913;51.120;6.772;2022-12-10T02:16:11;51.88;;;20.00;;
5774;SDS011;2913;51.120;6.772;2022-12-10T02:18:48;65.57;;;23.08;;
5774;SDS011;2913;51.120;6.772;2022-12-10T02:21:22;52.33;;;20.10;;
5774;SDS011;2913;51.120;6.772;2022-12-10T02:23:58;54.28;;;20.17;;
5774;SDS011;2913;51.120;6.772;2022-12-10T02:26:32;58.95;;;20.17;;
5774;SDS011;2913;51.120;6.772;2022-12-10T02:29:15;60.47;;;20.80;;
5774;SDS011;2913;51.120;6.772;2022-12-10T02:31:50;50.03;;;20.10;;
5774;SDS011;2913;51.120;6.772;2022-12-10T02:34:23;46.78;;;19.08;;
5774;SDS011;2913;51.120;6.772;2022-12-10T02:36:53;51.22;;;19.55;;
5774;SDS011;2913;51.120;6.772;2022-12-10T02:39:23;55.78;;;20.30;;
5774;SDS011;2913;51.120;6.772;2022-12-10T02:41:55;51.88;;;19.95;;
5774;SDS011;2913;51.120;6.772;2022-12-10T02:44:22;51.92;;;20.35;;
5774;SDS011;2913;51.120;6.772;2022-12-10T02:46:54;49.45;;;20.13;;
5774;SDS011;2913;51.120;6.772;2022-12-10T02:49:22;57.22;;;20.80;;
5774;SDS011;2913;51.120;6.772;2022-12-10T02:51:52;52.63;;;19.55;;
5774;SDS011;2913;51.120;6.772;2022-12-10T03:00:06;57.67;;;21.15;;
5774;SDS011;2913;51.120;6.772;2022-12-10T03:08:22;64.07;;;23.08;;
5774;SDS011;2913;51.120;6.772;2022-12-10T03:11:16;77.50;;;22.90;;
5774;SDS011;2913;51.120;6.772;2022-12-10T03:14:12;64.85;;;23.13;;
5774;SDS011;2913;51.120;6.772;2022-12-10T03:16:56;84.07;;;24.27;;
5774;SDS011;2913;51.120;6.772;2022-12-10T03:19:24;71.15;;;24.20;;
5774;SDS011;2913;51.120;6.772;2022-12-10T03:21:53;61.80;;;23.80;;
5774;SDS011;2913;51.120;6.772;2022-12-10T03:24:22;67.95;;;23.95;;
5774;SDS011;2913;51.120;6.772;2022-12-10T03:26:51;66.18;;;23.63;;
5774;SDS011;2913;51.120;6.772;2022-12-10T03:29:27;66.22;;;24.20;;
5774;SDS011;2913;51.120;6.772;2022-12-10T03:31:58;79.38;;;23.95;;
5774;SDS011;2913;51.120;6.772;2022-12-10T03:34:27;68.50;;;22.42;;
5774;SDS011;2913;51.120;6.772;2022-12-10T03:36:53;71.18;;;25.98;;
5774;SDS011;2913;51.120;6.772;2022-12-10T03:39:19;78.72;;;24.73;;
5774;SDS011;2913;51.120;6.772;2022-12-10T03:41:45;66.00;;;24.08;;
5774;SDS011;2913;51.120;6.772;2022-12-10T03:44:11;66.75;;;24.08;;
5774;SDS011;2913;51.120;6.772;2022-12-10T03:46:39;61.55;;;22.70;;
5774;SDS011;2913;51.120;6.772;2022-12-10T03:49:07;55.63;;;20.73;;
5774;SDS011;2913;51.120;6.772;2022-12-10T03:51:35;60.97;;;22.02;;
5774;SDS011;2913;51.120;6.772;2022-12-10T03:54:03;52.13;;;21.65;;
5774;SDS011;2913;51.120;6.772;2022-12-10T03:56:29;56.33;;;20.83;;
5774;SDS011;2913;51.120;6.772;2022-12-10T03:58:59;57.08;;;21.70;;
5774;SDS011;2913;51.120;6.772;2022-12-10T04:01:24;56.15;;;21.27;;
5774;SDS011;2913;51.120;6.772;2022-12-10T04:03:50;62.33;;;21.85;;
5774;SDS011;2913;51.120;6.772;2022-12-10T04:06:16;66.47;;;21.95;;
5774;SDS011;2913;51.120;6.772;2022-12-10T04:08:45;53.90;;;21.13;;
5774;SDS011;2913;51.120;6.772;2022-12-10T04:11:12;53.50;;;20.55;;
5774;SDS011;2913;51.120;6.772;2022-12-10T04:13:39;51.67;;;20.17;;
5774;SDS011;2913;51.120;6.772;2022-12-10T04:16:24;55.85;;;20.30;;
5774;SDS011;2913;51.120;6.772;2022-12-10T04:18:54;52.40;;;21.77;;
5774;SDS011;2913;51.120;6.772;2022-12-10T04:21:24;50.65;;;20.85;;
5774;SDS011;2913;51.120;6.772;2022-12-10T04:24:09;62.25;;;21.48;;
5774;SDS011;2913;51.120;6.772;2022-12-10T04:26:55;62.72;;;22.08;;
5774;SDS011;2913;51.120;6.772;2022-12-10T04:29:27;64.35;;;22.55;;
5774;SDS011;2913;51.120;6.772;2022-12-10T04:31:54;60.22;;;21.40;;
5774;SDS011;2913;51.120;6.772;2022-12-10T04:34:23;56.55;;;22.35;;
5774;SDS011;2913;51.120;6.772;2022-12-10T04:36:52;53.78;;;21.60;;
5774;SDS011;2913;51.120;6.772;2022-12-10T04:39:17;54.33;;;21.75;;
5774;SDS011;2913;51.120;6.772;2022-12-10T04:41:46;58.80;;;21.52;;
5774;SDS011;2913;51.120;6.772;2022-12-10T04:44:13;55.05;;;22.33;;
5774;SDS011;2913;51.120;6.772;2022-12-10T04:46:38;65.25;;;22.67;;
5774;SDS011;2913;51.120;6.772;2022-12-10T04:49:09;55.67;;;22.13;;
5774;SDS011;2913;51.120;6.772;2022-12-10T04:51:35;65.25;;;22.27;;
5774;SDS011;2913;51.120;6.772;2022-12-10T04:54:03;59.90;;;21.25;;
5774;SDS011;2913;51.120;6.772;2022-12-10T04:56:29;48.50;;;20.33;;
5774;SDS011;2913;51.120;6.772;2022-12-10T04:58:58;51.67;;;20.90;;
5774;SDS011;2913;51.120;6.772;2022-12-10T05:01:27;52.75;;;20.38;;
5774;SDS011;2913;51.120;6.772;2022-12-10T05:03:57;51.88;;;20.85;;
5774;SDS011;2913;51.120;6.772;2022-12-10T05:06:27;57.65;;;21.38;;
5774;SDS011;2913;51.120;6.772;2022-12-10T05:08:53;58.60;;;22.35;;
5774;SDS011;2913;51.120;6.772;2022-12-10T05:11:20;56.28;;;21.05;;
5774;SDS011;2913;51.120;6.772;2022-12-10T05:13:49;54.08;;;23.02;;
5774;SDS011;2913;51.120;6.772;2022-12-10T05:16:16;60.00;;;22.10;;
5774;SDS011;2913;51.120;6.772;2022-12-10T05:18:43;54.83;;;20.75;;
5774;SDS011;2913;51.120;6.772;2022-12-10T05:21:14;55.40;;;21.90;;
5774;SDS011;2913;51.120;6.772;2022-12-10T05:23:45;65.95;;;22.75;;
5774;SDS011;2913;51.120;6.772;2022-12-10T05:26:19;61.15;;;22.40;;
5774;SDS011;2913;51.120;6.772;2022-12-10T05:28:47;62.63;;;21.52;;
5774;SDS011;2913;51.120;6.772;2022-12-10T05:31:18;62.33;;;21.95;;
5774;SDS011;2913;51.120;6.772;2022-12-10T05:33:52;63.75;;;22.88;;
5774;SDS011;2913;51.120;6.772;2022-12-10T05:36:20;59.05;;;22.27;;
5774;SDS011;2913;51.120;6.772;2022-12-10T05:38:49;65.47;;;23.88;;
5774;SDS011;2913;51.120;6.772;2022-12-10T05:41:20;67.15;;;23.50;;
5774;SDS011;2913;51.120;6.772;2022-12-10T05:43:47;70.25;;;23.95;;
5774;SDS011;2913;51.120;6.772;2022-12-10T05:46:15;71.93;;;23.40;;
5774;SDS011;2913;51.120;6.772;2022-12-10T05:48:43;65.85;;;23.38;;
5774;SDS011;2913;51.120;6.772;2022-12-10T05:51:10;66.50;;;23.60;;
5774;SDS011;2913;51.120;6.772;2022-12-10T05:53:38;65.20;;;24.33;;
5774;SDS011;2913;51.120;6.772;2022-12-10T05:56:07;71.78;;;23.75;;
5774;SDS011;2913;51.120;6.772;2022-12-10T05:58:38;72.63;;;24.05;;
5774;SDS011;2913;51.120;6.772;2022-12-10T06:01:15;77.15;;;25.67;;
5774;SDS011;2913;51.120;6.772;2022-12-10T06:03:42;70.80;;;25.10;;
5774;SDS011;2913;51.120;6.772;2022-12-10T06:06:08;83.57;;;25.27;;
5774;SDS011;2913;51.120;6.772;2022-12-10T06:08:38;72.55;;;26.27;;
5774;SDS011;2913;51.120;6.772;2022-12-10T06:11:05;78.88;;;25.05;;
5774;SDS011;2913;51.120;6.772;2022-12-10T06:13:33;90.55;;;25.77;;
5774;SDS011;2913;51.120;6.772;2022-12-10T06:15:58;73.15;;;24.38;;
5774;SDS011;2913;51.120;6.772;2022-12-10T06:18:28;78.00;;;24.92;;
5774;SDS011;2913;51.120;6.772;2022-12-10T06:20:53;80.25;;;25.05;;
5774;SDS011;2913;51.120;6.772;2022-12-10T06:23:19;78.97;;;24.92;;
5774;SDS011;2913;51.120;6.772;2022-12-10T06:25:47;75.80;;;24.98;;
5774;SDS011;2913;51.120;6.772;2022-12-10T06:28:15;71.28;;;25.20;;
5774;SDS011;2913;51.120;6.772;2022-12-10T06:30:40;72.85;;;24.63;;
5774;SDS011;2913;51.120;6.772;2022-12-10T06:33:06;80.32;;;25.13;;
5774;SDS011;2913;51.120;6.772;2022-12-10T06:35:32;72.43;;;24.10;;
5774;SDS011;2913;51.120;6.772;2022-12-10T06:37:57;81.80;;;26.33;;
5774;SDS011;2913;51.120;6.772;2022-12-10T06:40:23;80.25;;;25.25;;
5774;SDS011;2913;51.120;6.772;2022-12-10T06:42:51;90.30;;;25.58;;
5774;SDS011;2913;51.120;6.772;2022-12-10T06:45:17;81.55;;;25.30;;
5774;SDS011;2913;51.120;6.772;2022-12-10T06:47:43;93.90;;;26.65;;
5774;SDS011;2913;51.120;6.772;2022-12-10T06:50:08;96.13;;;27.55;;
5774;SDS011;2913;51.120;6.772;2022-12-10T06:52:37;109.88;;;29.40;;
5774;SDS011;2913;51.120;6.772;2022-12-10T06:55:04;122.90;;;29.55;;
5774;SDS011;2913;51.120;6.772;2022-12-10T06:57:30;117.72;;;29.52;;
5774;SDS011;2913;51.120;6.772;2022-12-10T06:59:56;104.85;;;27.70;;
5774;SDS011;2913;51.120;6.772;2022-12-10T07:02:24;110.32;;;31.05;;
5774;SDS011;2913;51.120;6.772;2022-12-10T07:04:49;130.70;;;29.80;;
5774;SDS011;2913;51.120;6.772;2022-12-10T07:07:15;105.95;;;29.13;;
5774;SDS011;2913;51.120;6.772;2022-12-10T07:09:43;107.00;;;29.17;;
5774;SDS011;2913;51.120;6.772;2022-12-10T07:12:11;112.28;;;29.88;;
5774;SDS011;2913;51.120;6.772;2022-12-10T07:14:36;112.95;;;31.15;;
5774;SDS011;2913;51.120;6.772;2022-12-10T07:17:02;112.28;;;30.67;;
5774;SDS011;2913;51.120;6.772;2022-12-10T07:19:30;93.20;;;27.58;;
5774;SDS011;2913;51.120;6.772;2022-12-10T07:21:56;94.45;;;25.95;;
5774;SDS011;2913;51.120;6.772;2022-12-10T07:24:22;95.82;;;25.60;;
5774;SDS011;2913;51.120;6.772;2022-12-10T07:26:47;92.78;;;26.70;;
5774;SDS011;2913;51.120;6.772;2022-12-10T07:29:20;95.00;;;26.35;;
5774;SDS011;2913;51.120;6.772;2022-12-10T07:31:46;90.63;;;26.45;;
5774;SDS011;2913;51.120;6.772;2022-12-10T07:34:14;94.68;;;26.38;;
5774;SDS011;2913;51.120;6.772;2022-12-10T07:36:40;99.53;;;28.45;;
5774;SDS011;2913;51.120;6.772;2022-12-10T07:39:07;90.05;;;26.92;;
5774;SDS011;2913;51.120;6.772;2022-12-10T07:41:34;102.70;;;28.20;;
5774;SDS011;2913;51.120;6.772;2022-12-10T07:44:01;88.25;;;25.98;;
5774;SDS011;2913;51.120;6.772;2022-12-10T07:46:30;87.85;;;26.10;;
5774;SDS011;2913;51.120;6.772;2022-12-10T07:48:56;86.35;;;26.17;;
5774;SDS011;2913;51.120;6.772;2022-12-10T07:51:24;101.75;;;27.17;;
5774;SDS011;2913;51.120;6.772;2022-12-10T07:53:53;104.68;;;28.17;;
5774;SDS011;2913;51.120;6.772;2022-12-10T07:56:22;88.20;;;26.47;;
5774;SDS011;2913;51.120;6.772;2022-12-10T07:58:49;91.97;;;25.58;;
5774;SDS011;2913;51.120;6.772;2022-12-10T08:01:19;88.30;;;25.02;;
5774;SDS011;2913;51.120;6.772;2022-12-10T08:03:47;96.82;;;27.08;;
5774;SDS011;2913;51.120;6.772;2022-12-10T08:06:15;97.85;;;26.65;;
5774;SDS011;2913;51.120;6.772;2022-12-10T08:08:42;108.90;;;29.23;;
5774;SDS011;2913;51.120;6.772;2022-12-10T08:11:09;102.93;;;27.27;;
5774;SDS011;2913;51.120;6.772;2022-12-10T08:13:36;101.18;;;27.55;;
5774;SDS011;2913;51.120;6.772;2022-12-10T08:16:03;100.10;;;28.33;;
5774;SDS011;2913;51.120;6.772;2022-12-10T08:18:31;106.25;;;28.98;;
5774;SDS011;2913;51.120;6.772;2022-12-10T08:20:57;119.95;;;29.60;;
5774;SDS011;2913;51.120;6.772;2022-12-10T08:23:23;111.32;;;29.27;;
5774;SDS011;2913;51.120;6.772;2022-12-10T08:25:48;104.60;;;28.05;;
5774;SDS011;2913;51.120;6.772;2022-12-10T08:28:16;104.75;;;27.50;;
5774;SDS011;2913;51.120;6.772;2022-12-10T08:30:46;108.97;;;29.35;;
5774;SDS011;2913;51.120;6.772;2022-12-10T08:33:12;109.10;;;27.88;;
5774;SDS011;2913;51.120;6.772;2022-12-10T08:35:40;97.22;;;27.52;;
5774;SDS011;2913;51.120;6.772;2022-12-10T08:38:06;85.03;;;24.58;;
5774;SDS011;2913;51.120;6.772;2022-12-10T08:40:33;98.55;;;26.25;;
5774;SDS011;2913;51.120;6.772;2022-12-10T08:43:05;101.40;;;27.58;;
5774;SDS011;2913;51.120;6.772;2022-12-10T08:45:33;87.80;;;25.10;;
5774;SDS011;2913;51.120;6.772;2022-12-10T08:47:59;92.03;;;27.25;;
5774;SDS011;2913;51.120;6.772;2022-12-10T08:50:25;90.55;;;26.15;;
5774;SDS011;2913;51.120;6.772;2022-12-10T08:52:54;90.65;;;25.42;;
5774;SDS011;2913;51.120;6.772;2022-12-10T08:55:22;83.63;;;26.17;;
5774;SDS011;2913;51.120;6.772;2022-12-10T08:57:47;95.55;;;25.55;;
5774;SDS011;2913;51.120;6.772;2022-12-10T09:00:15;86.97;;;25.10;;
5774;SDS011;2913;51.120;6.772;2022-12-10T09:02:41;91.57;;;27.23;;
5774;SDS011;2913;51.120;6.772;2022-12-10T09:05:07;91.07;;;26.73;;
5774;SDS011;2913;51.120;6.772;2022-12-10T09:07:33;98.35;;;26.73;;
5774;SDS011;2913;51.120;6.772;2022-12-10T09:09:59;84.45;;;24.25;;
5774;SDS011;2913;51.120;6.772;2022-12-10T09:12:24;76.38;;;23.33;;
5774;SDS011;2913;51.120;6.772;2022-12-10T09:14:52;64.60;;;20.63;;
5774;SDS011;2913;51.120;6.772;2022-12-10T09:17:18;76.40;;;20.83;;
5774;SDS011;2913;51.120;6.772;2022-12-10T09:19:44;67.70;;;21.55;;
5774;SDS011;2913;51.120;6.772;2022-12-10T09:22:09;73.93;;;21.10;;
5774;SDS011;2913;51.120;6.772;2022-12-10T09:24:38;71.65;;;20.98;;
5774;SDS011;2913;51.120;6.772;2022-12-10T09:27:05;65.50;;;21.23;;
5774;SDS011;2913;51.120;6.772;2022-12-10T09:29:31;66.32;;;21.80;;
5774;SDS011;2913;51.120;6.772;2022-12-10T09:31:57;82.20;;;21.73;;
5774;SDS011;2913;51.120;6.772;2022-12-10T09:34:22;70.53;;;21.55;;
5774;SDS011;2913;51.120;6.772;2022-12-10T09:36:48;80.97;;;23.45;;
5774;SDS011;2913;51.120;6.772;2022-12-10T09:39:14;84.95;;;25.00;;
5774;SDS011;2913;51.120;6.772;2022-12-10T09:41:47;85.15;;;25.42;;
5774;SDS011;2913;51.120;6.772;2022-12-10T09:47:15;77.13;;;23.00;;
5774;SDS011;2913;51.120;6.772;2022-12-10T09:52:43;71.95;;;22.35;;
5774;SDS011;2913;51.120;6.772;2022-12-10T09:55:14;73.07;;;22.35;;
5774;SDS011;2913;51.120;6.772;2022-12-10T09:57:44;82.22;;;23.35;;
5774;SDS011;2913;51.120;6.772;2022-12-10T10:02:50;74.80;;;22.42;;
5774;SDS011;2913;51.120;6.772;2022-12-10T10:05:21;71.13;;;21.08;;
5774;SDS011;2913;51.120;6.772;2022-12-10T10:07:53;75.88;;;22.77;;
5774;SDS011;2913;51.120;6.772;2022-12-10T10:10:37;76.75;;;23.95;;
5774;SDS011;2913;51.120;6.772;2022-12-10T10:15:33;89.03;;;22.30;;
5774;SDS011;2913;51.120;6.772;2022-12-10T10:18:02;94.45;;;23.65;;
5774;SDS011;2913;51.120;6.772;2022-12-10T10:20:38;84.72;;;23.02;;
5774;SDS011;2913;51.120;6.772;2022-12-10T10:23:06;79.45;;;22.92;;
5774;SDS011;2913;51.120;6.772;2022-12-10T10:25:35;87.95;;;24.13;;
5774;SDS011;2913;51.120;6.772;2022-12-10T10:28:01;84.63;;;23.13;;
5774;SDS011;2913;51.120;6.772;2022-12-10T10:30:29;79.75;;;22.70;;
5774;SDS011;2913;51.120;6.772;2022-12-10T10:32:56;80.15;;;22.77;;
5774;SDS011;2913;51.120;6.772;2022-12-10T10:38:04;80.68;;;23.33;;
5774;SDS011;2913;51.120;6.772;2022-12-10T10:40:33;85.18;;;24.83;;
5774;SDS011;2913;51.120;6.772;2022-12-10T10:43:05;84.25;;;25.15;;
5774;SDS011;2913;51.120;6.772;2022-12-10T10:48:12;84.35;;;24.17;;
5774;SDS011;2913;51.120;6.772;2022-12-10T10:50:41;102.03;;;28.70;;
5774;SDS011;2913;51.120;6.772;2022-12-10T10:53:22;91.47;;;26.33;;
5774;SDS011;2913;51.120;6.772;2022-12-10T10:55:50;95.70;;;27.50;;
5774;SDS011;2913;51.120;6.772;2022-12-10T10:58:19;91.10;;;24.65;;
5774;SDS011;2913;51.120;6.772;2022-12-10T11:03:34;91.07;;;28.17;;
5774;SDS011;2913;51.120;6.772;2022-12-10T11:06:04;81.03;;;23.15;;
5774;SDS011;2913;51.120;6.772;2022-12-10T11:08:37;110.47;;;34.63;;
5774;SDS011;2913;51.120;6.772;2022-12-10T11:11:06;92.90;;;26.63;;
5774;SDS011;2913;51.120;6.772;2022-12-10T11:13:49;97.22;;;29.25;;
5774;SDS011;2913;51.120;6.772;2022-12-10T11:18:57;79.05;;;25.85;;
5774;SDS011;2913;51.120;6.772;2022-12-10T11:21:28;96.32;;;25.50;;
5774;SDS011;2913;51.120;6.772;2022-12-10T11:23:57;92.05;;;24.30;;
5774;SDS011;2913;51.120;6.772;2022-12-10T11:32:26;86.10;;;25.42;;
5774;SDS011;2913;51.120;6.772;2022-12-10T11:35:24;90.97;;;25.45;;
5774;SDS011;2913;51.120;6.772;2022-12-10T11:40:33;87.65;;;24.73;;
5774;SDS011;2913;51.120;6.772;2022-12-10T11:46:15;62.30;;;19.98;;
5774;SDS011;2913;51.120;6.772;2022-12-10T11:48:55;66.75;;;20.00;;
5774;SDS011;2913;51.120;6.772;2022-12-10T11:51:50;78.90;;;23.20;;
5774;SDS011;2913;51.120;6.772;2022-12-10T11:59:53;80.63;;;24.10;;
5774;SDS011;2913;51.120;6.772;2022-12-10T12:07:48;62.55;;;20.85;;
5774;SDS011;2913;51.120;6.772;2022-12-10T12:13:15;62.17;;;20.73;;
5774;SDS011;2913;51.120;6.772;2022-12-10T12:16:06;60.08;;;20.80;;
5774;SDS011;2913;51.120;6.772;2022-12-10T12:18:46;68.78;;;22.50;;
5774;SDS011;2913;51.120;6.772;2022-12-10T12:21:17;62.15;;;20.92;;
5774;SDS011;2913;51.120;6.772;2022-12-10T12:31:49;60.35;;;21.25;;
5774;SDS011;2913;51.120;6.772;2022-12-10T12:40:59;67.20;;;20.92;;
5774;SDS011;2913;51.120;6.772;2022-12-10T12:46:00;57.28;;;19.98;;
5774;SDS011;2913;51.120;6.772;2022-12-10T12:48:42;63.35;;;20.98;;
5774;SDS011;2913;51.120;6.772;2022-12-10T12:51:27;57.67;;;20.17;;
5774;SDS011;2913;51.120;6.772;2022-12-10T12:53:58;50.97;;;18.67;;
5774;SDS011;2913;51.120;6.772;2022-12-10T13:02:02;63.53;;;20.13;;
5774;SDS011;2913;51.120;6.772;2022-12-10T13:04:47;57.65;;;20.15;;
5774;SDS011;2913;51.120;6.772;2022-12-10T13:09:47;68.88;;;21.33;;
5774;SDS011;2913;51.120;6.772;2022-12-10T13:20:44;72.05;;;21.27;;
5774;SDS011;2913;51.120;6.772;2022-12-10T13:25:55;74.15;;;23.48;;
5774;SDS011;2913;51.120;6.772;2022-12-10T13:31:34;54.83;;;19.63;;
5774;SDS011;2913;51.120;6.772;2022-12-10T13:33:47;53.80;;;20.42;;
5774;SDS011;2913;51.120;6.772;2022-12-10T13:36:27;53.08;;;19.95;;
5774;SDS011;2913;51.120;6.772;2022-12-10T13:39:35;63.38;;;21.75;;
5774;SDS011;2913;51.120;6.772;2022-12-10T13:45:16;50.60;;;16.85;;
5774;SDS011;2913;51.120;6.772;2022-12-10T13:53:01;53.92;;;19.63;;
5774;SDS011;2913;51.120;6.772;2022-12-10T13:55:59;52.53;;;18.80;;
5774;SDS011;2913;51.120;6.772;2022-12-10T13:58:39;55.85;;;18.08;;
5774;SDS011;2913;51.120;6.772;2022-12-10T14:01:40;47.22;;;18.25;;
5774;SDS011;2913;51.120;6.772;2022-12-10T14:07:03;45.85;;;17.50;;
5774;SDS011;2913;51.120;6.772;2022-12-10T14:09:42;53.85;;;18.08;;
5774;SDS011;2913;51.120;6.772;2022-12-10T14:12:28;50.75;;;20.17;;
5774;SDS011;2913;51.120;6.772;2022-12-10T14:15:07;55.70;;;20.35;;
5774;SDS011;2913;51.120;6.772;2022-12-10T14:17:41;49.90;;;20.55;;
5774;SDS011;2913;51.120;6.772;2022-12-10T14:20:14;52.15;;;19.10;;
5774;SDS011;2913;51.120;6.772;2022-12-10T14:22:44;48.45;;;18.58;;
5774;SDS011;2913;51.120;6.772;2022-12-10T14:25:18;54.30;;;22.02;;
5774;SDS011;2913;51.120;6.772;2022-12-10T14:27:48;80.32;;;29.52;;
5774;SDS011;2913;51.120;6.772;2022-12-10T14:32:45;58.33;;;23.67;;
5774;SDS011;2913;51.120;6.772;2022-12-10T14:35:22;69.18;;;27.15;;
5774;SDS011;2913;51.120;6.772;2022-12-10T14:37:49;54.20;;;22.33;;
5774;SDS011;2913;51.120;6.772;2022-12-10T14:40:19;52.55;;;21.02;;
5774;SDS011;2913;51.120;6.772;2022-12-10T14:42:48;61.63;;;22.65;;
5774;SDS011;2913;51.120;6.772;2022-12-10T14:45:17;68.65;;;24.25;;
5774;SDS011;2913;51.120;6.772;2022-12-10T14:47:42;59.17;;;21.73;;
5774;SDS011;2913;51.120;6.772;2022-12-10T14:50:12;65.60;;;23.17;;
5774;SDS011;2913;51.120;6.772;2022-12-10T14:52:42;58.50;;;21.25;;
5774;SDS011;2913;51.120;6.772;2022-12-10T14:55:16;57.00;;;19.13;;
5774;SDS011;2913;51.120;6.772;2022-12-10T14:58:00;64.55;;;23.27;;
5774;SDS011;2913;51.120;6.772;2022-12-10T15:00:27;60.30;;;22.58;;
5774;SDS011;2913;51.120;6.772;2022-12-10T15:02:54;67.93;;;24.65;;
5774;SDS011;2913;51.120;6.772;2022-12-10T15:05:26;67.30;;;23.40;;
5774;SDS011;2913;51.120;6.772;2022-12-10T15:10:44;60.95;;;22.17;;
5774;SDS011;2913;51.120;6.772;2022-12-10T15:13:57;63.97;;;24.40;;
5774;SDS011;2913;51.120;6.772;2022-12-10T15:16:05;61.83;;;21.70;;
5774;SDS011;2913;51.120;6.772;2022-12-10T15:18:37;64.30;;;22.90;;
5774;SDS011;2913;51.120;6.772;2022-12-10T15:21:24;70.78;;;24.40;;
5774;SDS011;2913;51.120;6.772;2022-12-10T15:26:46;62.53;;;22.67;;
5774;SDS011;2913;51.120;6.772;2022-12-10T15:31:54;60.13;;;20.35;;
5774;SDS011;2913;51.120;6.772;2022-12-10T15:34:25;61.42;;;20.70;;
5774;SDS011;2913;51.120;6.772;2022-12-10T15:36:53;48.70;;;19.13;;
5774;SDS011;2913;51.120;6.772;2022-12-10T15:39:30;65.47;;;22.48;;
5774;SDS011;2913;51.120;6.772;2022-12-10T15:42:06;54.50;;;20.30;;
5774;SDS011;2913;51.120;6.772;2022-12-10T15:44:36;67.70;;;21.77;;
5774;SDS011;2913;51.120;6.772;2022-12-10T15:47:22;70.88;;;23.02;;
5774;SDS011;2913;51.120;6.772;2022-12-10T15:49:52;65.47;;;20.85;;
5774;SDS011;2913;51.120;6.772;2022-12-10T15:54:52;67.28;;;23.17;;
5774;SDS011;2913;51.120;6.772;2022-12-10T15:57:23;68.70;;;22.65;;
5774;SDS011;2913;51.120;6.772;2022-12-10T15:59:58;69.20;;;21.58;;
5774;SDS011;2913;51.120;6.772;2022-12-10T16:02:37;68.10;;;22.58;;
5774;SDS011;2913;51.120;6.772;2022-12-10T16:07:46;71.20;;;23.83;;
5774;SDS011;2913;51.120;6.772;2022-12-10T16:10:15;66.63;;;22.35;;
5774;SDS011;2913;51.120;6.772;2022-12-10T16:12:43;66.95;;;23.63;;
5774;SDS011;2913;51.120;6.772;2022-12-10T16:17:46;76.10;;;25.60;;
5774;SDS011;2913;51.120;6.772;2022-12-10T16:22:39;77.97;;;25.00;;
5774;SDS011;2913;51.120;6.772;2022-12-10T16:25:05;77.43;;;26.70;;
5774;SDS011;2913;51.120;6.772;2022-12-10T16:27:33;87.05;;;27.10;;
5774;SDS011;2913;51.120;6.772;2022-12-10T16:30:05;68.85;;;23.92;;
5774;SDS011;2913;51.120;6.772;2022-12-10T16:32:52;66.80;;;23.23;;
5774;SDS011;2913;51.120;6.772;2022-12-10T16:35:22;60.63;;;21.63;;
5774;SDS011;2913;51.120;6.772;2022-12-10T16:37:48;73.70;;;22.75;;
5774;SDS011;2913;51.120;6.772;2022-12-10T16:40:20;68.90;;;22.77;;
5774;SDS011;2913;51.120;6.772;2022-12-10T16:42:52;63.90;;;20.88;;
5774;SDS011;2913;51.120;6.772;2022-12-10T16:45:21;71.10;;;21.73;;
5774;SDS011;2913;51.120;6.772;2022-12-10T16:50:22;69.25;;;22.52;;
5774;SDS011;2913;51.120;6.772;2022-12-10T16:52:48;64.10;;;20.77;;
5774;SDS011;2913;51.120;6.772;2022-12-10T16:55:19;60.90;;;20.17;;
5774;SDS011;2913;51.120;6.772;2022-12-10T16:57:46;65.85;;;21.60;;
5774;SDS011;2913;51.120;6.772;2022-12-10T17:00:13;62.95;;;20.40;;
5774;SDS011;2913;51.120;6.772;2022-12-10T17:02:41;64.95;;;20.63;;
5774;SDS011;2913;51.120;6.772;2022-12-10T17:05:16;61.45;;;20.10;;
5774;SDS011;2913;51.120;6.772;2022-12-10T17:07:49;54.15;;;20.27;;
5774;SDS011;2913;51.120;6.772;2022-12-10T17:10:15;58.72;;;20.27;;
5774;SDS011;2913;51.120;6.772;2022-12-10T17:12:40;59.30;;;19.25;;
5774;SDS011;2913;51.120;6.772;2022-12-10T17:15:11;66.75;;;19.58;;
5774;SDS011;2913;51.120;6.772;2022-12-10T17:17:38;54.85;;;19.65;;
5774;SDS011;2913;51.120;6.772;2022-12-10T17:20:38;69.38;;;21.48;;
5774;SDS011;2913;51.120;6.772;2022-12-10T17:22:56;65.13;;;18.95;;
5774;SDS011;2913;51.120;6.772;2022-12-10T17:25:22;64.55;;;20.15;;
5774;SDS011;2913;51.120;6.772;2022-12-10T17:27:50;57.22;;;20.52;;